Time;durP1;ratioP1;P1;durP2;ratioP2;P2;SDS_P1;SDS_P2;PMS_P1;PMS_P2;Temp;Humidity;BMP_temperature;BMP_pressure;BME280_temperature;BME280_humidity;BME280_pressure;Samples;Min_cycle;Max_cycle;Signal;HPM_P1;HPM_P2
2022/08/11 00:00:44;;;;;;;1.00;0.90;;;22.70;85.60;;;;;;5115517;28;20157;-57
2022/08/11 00:03:12;;;;;;;1.42;0.60;;;22.60;85.50;;;;;;5115521;28;20533;-57
2022/08/11 00:05:50;;;;;;;0.93;0.63;;;22.60;85.80;;;;;;5115226;28;20166;-58
2022/08/11 00:08:24;;;;;;;0.82;0.70;;;22.60;85.90;;;;;;5115424;28;20157;-57
2022/08/11 00:11:06;;;;;;;1.77;0.90;;;22.60;86.00;;;;;;5114481;28;20211;-56
2022/08/11 00:13:44;;;;;;;0.85;0.80;;;22.70;85.50;;;;;;5115079;28;20184;-57
2022/08/11 00:16:20;;;;;;;0.77;0.70;;;22.60;85.90;;;;;;5115429;28;20224;-57
2022/08/11 00:18:50;;;;;;;0.73;0.65;;;22.60;86.00;;;;;;5114022;28;20513;-57
2022/08/11 00:21:17;;;;;;;0.52;0.52;;;22.50;85.90;;;;;;5115080;28;20169;-56
2022/08/11 00:23:46;;;;;;;0.85;0.70;;;22.50;85.80;;;;;;5114826;28;20193;-57
2022/08/11 00:26:14;;;;;;;2.30;0.88;;;22.40;86.10;;;;;;5114852;28;20170;-57
2022/08/11 00:28:40;;;;;;;1.00;0.88;;;22.40;86.30;;;;;;5113835;28;20169;-57
2022/08/11 00:31:32;;;;;;;1.15;0.70;;;22.40;86.00;;;;;;5114816;28;20169;-57
2022/08/11 00:34:00;;;;;;;1.25;0.70;;;22.40;86.30;;;;;;5114804;28;20168;-58
2022/08/11 00:36:44;;;;;;;0.88;0.88;;;22.40;86.60;;;;;;5114586;28;20204;-55
2022/08/11 00:39:11;;;;;;;0.80;0.70;;;22.40;86.60;;;;;;5114853;28;20177;-57
2022/08/11 00:42:04;;;;;;;0.80;0.80;;;22.30;86.40;;;;;;5114658;28;20153;-57
2022/08/11 00:45:02;;;;;;;0.60;0.60;;;22.30;86.30;;;;;;5114926;28;20223;-56
2022/08/11 00:47:30;;;;;;;0.70;0.65;;;22.20;86.60;;;;;;5113611;28;20218;-57
2022/08/11 00:50:14;;;;;;;0.95;0.85;;;22.20;86.60;;;;;;5113467;28;20157;-57
2022/08/11 00:53:02;;;;;;;1.20;0.70;;;22.10;86.50;;;;;;5113316;28;20173;-57
2022/08/11 00:56:05;;;;;;;1.02;0.93;;;22.10;86.90;;;;;;5114033;28;20200;-56
2022/08/11 00:58:49;;;;;;;0.82;0.82;;;22.10;86.90;;;;;;5114422;28;20552;-57
2022/08/11 01:01:14;;;;;;;0.80;0.80;;;22.10;86.60;;;;;;5114226;28;20165;-57
2022/08/11 01:03:58;;;;;;;0.70;0.70;;;22.00;86.70;;;;;;5114165;28;20168;-57
2022/08/11 01:06:48;;;;;;;0.90;0.80;;;22.00;86.70;;;;;;5114385;28;20173;-57
2022/08/11 01:09:29;;;;;;;0.63;0.63;;;21.90;86.80;;;;;;5114088;28;20154;-57
2022/08/11 01:12:24;;;;;;;0.60;0.60;;;21.90;87.20;;;;;;5114015;28;20203;-57
2022/08/11 01:15:11;;;;;;;1.00;0.90;;;22.00;87.50;;;;;;5112712;28;20567;-57
2022/08/11 01:18:28;;;;;;;0.82;0.75;;;21.90;87.10;;;;;;5113588;28;20173;-57
2022/08/11 01:21:31;;;;;;;0.82;0.80;;;21.80;87.30;;;;;;5113942;28;20515;-57
2022/08/11 01:24:14;;;;;;;0.90;0.90;;;21.70;87.30;;;;;;5113931;28;20192;-57
2022/08/11 01:27:01;;;;;;;0.90;0.80;;;21.70;87.90;;;;;;5114148;28;20173;-57
2022/08/11 01:29:32;;;;;;;0.60;0.60;;;21.60;87.60;;;;;;5114024;28;20168;-57
2022/08/11 01:32:04;;;;;;;0.90;0.80;;;21.70;87.30;;;;;;5113781;28;20561;-57
2022/08/11 01:35:07;;;;;;;0.70;0.60;;;21.70;87.90;;;;;;5113832;28;20248;-57
2022/08/11 01:38:29;;;;;;;1.00;0.90;;;21.70;87.80;;;;;;5113953;28;20172;-57
2022/08/11 01:41:19;;;;;;;0.95;0.85;;;21.60;87.70;;;;;;5050931;28;20228;-57
2022/08/11 01:47:49;;;;;;;0.90;0.90;;;21.50;87.20;;;;;;5111513;28;20208;-57
2022/08/11 01:50:37;;;;;;;1.05;0.80;;;21.50;88.00;;;;;;5113614;28;20165;-56
2022/08/11 01:53:16;;;;;;;1.45;0.82;;;21.50;87.90;;;;;;5112525;28;20201;-56
2022/08/11 01:56:25;;;;;;;1.73;0.80;;;21.50;87.90;;;;;;5113461;28;20196;-57
2022/08/11 01:59:21;;;;;;;0.88;0.80;;;21.50;87.80;;;;;;5102498;28;20268;-57
2022/08/11 02:01:59;;;;;;;1.00;0.82;;;21.50;87.90;;;;;;5113556;28;20170;-57
2022/08/11 02:04:51;;;;;;;0.85;0.82;;;21.50;87.50;;;;;;5113780;28;20289;-57
2022/08/11 02:07:31;;;;;;;1.73;1.00;;;21.40;88.20;;;;;;5113544;28;20218;-57
2022/08/11 02:13:15;;;;;;;1.13;0.82;;;21.40;88.20;;;;;;5113271;28;20276;-57
2022/08/11 02:16:03;;;;;;;1.65;0.70;;;21.30;88.00;;;;;;5113461;28;20543;-57
2022/08/11 02:24:25;;;;;;;0.60;0.60;;;21.30;87.80;;;;;;5102915;28;20169;-57
2022/08/11 02:27:03;;;;;;;1.05;0.90;;;21.30;88.60;;;;;;5113249;28;20177;-56
2022/08/11 02:29:49;;;;;;;0.80;0.80;;;21.30;88.10;;;;;;5113960;28;20626;-57
2022/08/11 02:35:35;;;;;;;1.50;0.98;;;21.30;87.40;;;;;;5117203;28;20200;-56
2022/08/11 02:38:17;;;;;;;1.23;0.80;;;21.30;87.90;;;;;;5076532;28;20734;-58
2022/08/11 02:40:52;;;;;;;1.20;0.70;;;21.30;87.60;;;;;;5115845;28;20168;-57
2022/08/11 02:43:33;;;;;;;0.88;0.82;;;21.30;88.20;;;;;;5117037;27;20161;-57
2022/08/11 02:46:15;;;;;;;0.88;0.88;;;21.20;88.00;;;;;;5116809;28;20169;-57
2022/08/11 02:52:08;;;;;;;0.80;0.75;;;21.30;88.10;;;;;;5117009;28;20676;-56
2022/08/11 02:55:21;;;;;;;1.55;1.00;;;21.30;88.00;;;;;;5116899;28;20211;-57
2022/08/11 02:58:28;;;;;;;1.40;1.10;;;21.30;87.80;;;;;;5053701;28;20183;-57
2022/08/11 03:01:22;;;;;;;1.10;1.00;;;21.20;88.00;;;;;;5053337;28;20524;-57
2022/08/11 03:04:09;;;;;;;1.02;0.90;;;21.00;88.40;;;;;;5114027;28;20213;-57
2022/08/11 03:06:51;;;;;;;1.55;1.17;;;21.00;89.10;;;;;;5115147;28;20181;-57
2022/08/11 03:09:46;;;;;;;1.00;0.90;;;21.00;89.20;;;;;;5116481;28;20177;-57
2022/08/11 03:18:50;;;;;;;2.40;1.00;;;20.90;89.40;;;;;;5116271;28;20645;-57
2022/08/11 03:21:54;;;;;;;2.05;0.80;;;20.80;89.30;;;;;;5061176;28;20178;-57
2022/08/11 03:24:36;;;;;;;0.80;0.70;;;20.80;90.00;;;;;;5106751;28;20176;-57
2022/08/11 03:27:22;;;;;;;1.10;0.90;;;20.70;90.10;;;;;;5114933;28;20305;-57
2022/08/11 03:30:07;;;;;;;2.22;1.10;;;20.70;90.10;;;;;;5116239;28;20193;-57
2022/08/11 03:36:33;;;;;;;1.33;0.88;;;20.50;90.30;;;;;;5116061;28;20285;-57
2022/08/11 03:39:02;;;;;;;1.08;0.98;;;20.50;90.30;;;;;;5116017;28;20556;-57
2022/08/11 03:41:52;;;;;;;1.08;1.00;;;20.40;90.20;;;;;;5115251;28;20165;-57
2022/08/11 03:44:36;;;;;;;1.00;0.90;;;20.50;90.30;;;;;;5116058;28;20201;-57
2022/08/11 03:47:14;;;;;;;1.52;1.20;;;20.50;90.20;;;;;;5115943;28;20177;-57
2022/08/11 03:49:59;;;;;;;1.00;0.90;;;20.40;90.40;;;;;;5115759;28;20517;-56
2022/08/11 03:52:33;;;;;;;1.08;0.98;;;20.40;90.30;;;;;;5115568;28;20164;-58
2022/08/11 03:55:30;;;;;;;1.25;0.95;;;20.40;90.50;;;;;;5115570;28;20239;-57
2022/08/11 03:58:08;;;;;;;1.10;1.00;;;20.40;90.40;;;;;;5115453;28;20231;-57
2022/08/11 04:00:53;;;;;;;1.85;0.98;;;20.40;90.40;;;;;;5114115;28;20196;-57
2022/08/11 04:03:29;;;;;;;1.17;1.00;;;20.40;90.50;;;;;;5115539;28;20176;-57
2022/08/11 04:06:36;;;;;;;1.60;0.80;;;20.30;90.70;;;;;;5115380;28;20177;-57
2022/08/11 04:09:35;;;;;;;1.17;1.08;;;20.30;90.60;;;;;;5113693;28;20530;-58
2022/08/11 04:12:22;;;;;;;1.00;0.90;;;20.30;90.70;;;;;;5115158;28;20196;-58
2022/08/11 04:18:20;;;;;;;3.65;1.23;;;20.20;90.80;;;;;;5115283;28;20680;-57
2022/08/11 04:21:15;;;;;;;1.00;0.90;;;20.10;91.00;;;;;;5115133;28;20184;-59
2022/08/11 04:24:11;;;;;;;1.38;0.90;;;20.10;91.10;;;;;;5114838;28;20271;-57
2022/08/11 04:26:56;;;;;;;2.25;0.95;;;20.00;91.00;;;;;;5115020;28;20565;-57
2022/08/11 04:29:43;;;;;;;1.23;0.82;;;20.00;91.10;;;;;;5114910;28;20165;-57
2022/08/11 04:32:33;;;;;;;0.77;0.77;;;20.00;91.30;;;;;;5114988;28;20168;-57
2022/08/11 04:35:33;;;;;;;1.00;0.90;;;20.10;91.10;;;;;;5114801;28;20571;-57
2022/08/11 04:38:11;;;;;;;1.00;0.90;;;20.00;91.30;;;;;;5114600;28;20169;-57
2022/08/11 04:40:49;;;;;;;1.60;1.13;;;20.00;91.20;;;;;;5114830;28;20173;-57
2022/08/11 04:43:45;;;;;;;1.20;1.10;;;19.90;91.50;;;;;;5114584;28;20169;-56
2022/08/11 04:46:28;;;;;;;1.23;0.98;;;19.90;91.30;;;;;;5114598;28;20169;-57
2022/08/11 05:02:45;;;;;;;1.25;0.82;;;20.00;91.80;;;;;;5092083;28;20173;-52
2022/08/11 05:05:32;;;;;;;2.13;1.00;;;20.00;91.50;;;;;;5011195;28;20673;-58
2022/08/11 05:08:45;;;;;;;1.13;1.00;;;20.10;91.60;;;;;;5011679;28;20168;-58
2022/08/11 05:11:54;;;;;;;1.48;1.00;;;20.10;91.60;;;;;;5097961;28;20177;-57
2022/08/11 05:34:53;;;;;;;1.38;1.08;;;20.10;92.00;;;;;;5114080;28;20172;-58
2022/08/11 05:37:32;;;;;;;1.75;1.27;;;20.20;91.80;;;;;;5113866;28;20180;-57
2022/08/11 05:57:22;;;;;;;1.27;1.17;;;21.50;90.50;;;;;;5112419;28;20265;-58
2022/08/11 05:59:49;;;;;;;2.05;1.45;;;21.50;90.30;;;;;;5113544;28;20292;-58
2022/08/11 06:02:16;;;;;;;1.73;1.40;;;21.70;90.30;;;;;;5113661;28;20699;-58
2022/08/11 06:04:43;;;;;;;1.13;1.02;;;21.60;90.30;;;;;;5115703;28;20181;-57
2022/08/11 06:07:11;;;;;;;2.22;1.38;;;21.70;90.30;;;;;;5116365;28;20181;-57
2022/08/11 06:09:48;;;;;;;1.67;1.40;;;21.80;90.10;;;;;;5117437;28;20172;-57
2022/08/11 06:12:23;;;;;;;2.33;1.50;;;21.90;90.20;;;;;;5117693;28;20177;-58
2022/08/11 06:14:53;;;;;;;1.33;1.13;;;22.30;89.80;;;;;;5117141;28;20181;-58
2022/08/11 06:17:25;;;;;;;1.30;1.20;;;22.60;89.30;;;;;;5117518;28;20181;-57
2022/08/11 06:19:57;;;;;;;1.60;1.50;;;22.90;88.90;;;;;;5116106;28;20168;-57
2022/08/11 06:22:24;;;;;;;1.30;1.20;;;23.10;87.70;;;;;;5117253;28;20169;-58
2022/08/11 06:25:00;;;;;;;1.70;1.20;;;22.90;87.70;;;;;;5117443;28;20563;-58
2022/08/11 06:27:30;;;;;;;1.58;1.40;;;23.00;87.30;;;;;;5117435;28;20252;-56
2022/08/11 06:29:57;;;;;;;1.90;1.27;;;23.50;87.10;;;;;;5117204;28;20176;-58
2022/08/11 06:32:34;;;;;;;1.08;0.98;;;23.50;86.60;;;;;;5117069;28;20252;-58
2022/08/11 06:35:24;;;;;;;2.25;1.25;;;23.60;87.00;;;;;;5117174;28;20488;-59
2022/08/11 06:38:16;;;;;;;1.60;1.50;;;23.90;86.70;;;;;;5117035;28;20622;-58
2022/08/11 06:43:58;;;;;;;2.17;1.10;;;23.90;86.10;;;;;;5117077;28;20192;-58
2022/08/11 06:46:51;;;;;;;1.20;1.10;;;24.10;86.30;;;;;;5117024;28;20176;-58
2022/08/11 06:52:15;;;;;;;1.40;1.13;;;24.40;86.50;;;;;;5116991;28;20196;-58
2022/08/11 06:54:49;;;;;;;1.48;0.95;;;24.90;85.40;;;;;;5115620;28;20245;-58
2022/08/11 07:02:53;;;;;;;2.70;1.20;;;25.50;85.10;;;;;;5116792;28;20180;-57
2022/08/11 07:05:46;;;;;;;1.52;1.25;;;25.60;83.90;;;;;;5116736;28;20165;-58
2022/08/11 07:16:51;;;;;;;1.27;1.10;;;25.70;82.10;;;;;;5115315;28;20220;-56
2022/08/11 07:31:03;;;;;;;1.08;0.98;;;25.90;81.80;;;;;;5115391;28;20188;-58
2022/08/11 07:33:42;;;;;;;1.58;1.20;;;26.00;81.00;;;;;;5116127;28;20550;-57
2022/08/11 07:36:11;;;;;;;1.33;1.20;;;26.20;82.30;;;;;;5115923;27;20608;-58
2022/08/11 07:38:49;;;;;;;1.80;1.30;;;26.50;81.80;;;;;;5115845;28;20178;-58
2022/08/11 07:41:18;;;;;;;1.30;1.20;;;26.70;81.20;;;;;;5115693;28;20173;-57
2022/08/11 07:43:50;;;;;;;1.42;1.00;;;26.50;81.00;;;;;;5115685;28;20231;-58
2022/08/11 07:54:35;;;;;;;1.65;1.08;;;27.20;79.90;;;;;;5114751;28;20188;-58
2022/08/11 08:19:04;;;;;;;1.20;0.90;;;28.30;77.60;;;;;;5115278;28;20204;-57
2022/08/11 08:21:30;;;;;;;1.13;0.95;;;28.40;78.00;;;;;;5114953;28;20573;-58
2022/08/11 08:23:57;;;;;;;1.38;0.90;;;28.30;77.40;;;;;;5115025;28;20165;-58
2022/08/11 08:31:55;;;;;;;1.20;0.95;;;28.80;76.30;;;;;;5115064;28;20196;-58
2022/08/11 08:34:22;;;;;;;1.25;1.05;;;28.30;75.80;;;;;;5114892;28;20174;-58
2022/08/11 08:36:50;;;;;;;2.08;1.23;;;28.10;76.00;;;;;;5114559;28;20688;-58
2022/08/11 08:39:20;;;;;;;1.50;1.40;;;28.40;76.70;;;;;;5114635;28;20173;-58
2022/08/11 08:41:51;;;;;;;1.88;0.90;;;28.70;76.10;;;;;;5114471;28;20181;-58
2022/08/11 08:44:20;;;;;;;2.20;1.38;;;29.00;75.00;;;;;;5114477;28;20222;-58
2022/08/11 08:46:57;;;;;;;1.00;1.00;;;28.70;74.70;;;;;;5114435;28;20222;-58
2022/08/11 08:49:32;;;;;;;1.30;1.17;;;28.60;74.90;;;;;;5113300;28;20177;-58
2022/08/11 08:52:02;;;;;;;1.10;1.00;;;28.60;74.60;;;;;;5114408;28;20653;-58
2022/08/11 08:54:39;;;;;;;1.35;1.10;;;28.60;74.70;;;;;;5114507;28;20170;-58
2022/08/11 08:57:06;;;;;;;1.08;0.95;;;28.70;75.60;;;;;;5114313;28;20212;-58
2022/08/11 08:59:40;;;;;;;1.08;0.98;;;28.80;74.80;;;;;;5114386;28;20177;-58
2022/08/11 09:02:06;;;;;;;1.73;1.20;;;28.90;74.60;;;;;;5114268;28;20169;-58
2022/08/11 09:04:33;;;;;;;1.10;1.00;;;29.20;74.70;;;;;;5114033;28;20177;-58
2022/08/11 09:07:06;;;;;;;0.82;0.82;;;29.30;74.50;;;;;;5096227;28;20181;-58
2022/08/11 09:09:32;;;;;;;1.80;1.10;;;29.50;74.10;;;;;;5114296;28;20173;-58
2022/08/11 09:11:59;;;;;;;2.28;1.23;;;29.50;71.80;;;;;;5114144;28;20175;-58
2022/08/11 09:17:22;;;;;;;13.07;1.40;;;30.00;73.70;;;;;;5113903;28;20278;-58
2022/08/11 09:19:56;;;;;;;1.00;0.90;;;30.10;72.30;;;;;;5114028;28;20185;-58
2022/08/11 09:27:55;;;;;;;1.63;1.00;;;29.90;73.20;;;;;;5102223;28;20181;-58
2022/08/11 09:30:24;;;;;;;1.38;1.10;;;30.10;72.00;;;;;;5112568;28;20617;-58
2022/08/11 09:32:57;;;;;;;1.30;1.10;;;30.20;71.00;;;;;;5113784;28;20176;-58
2022/08/11 09:35:25;;;;;;;1.20;0.98;;;30.10;69.80;;;;;;5113623;28;20219;-58
2022/08/11 09:40:38;;;;;;;0.98;0.88;;;30.20;69.60;;;;;;5113501;28;20187;-58
2022/08/11 09:45:54;;;;;;;1.90;1.40;;;30.20;69.20;;;;;;5113983;28;20203;-58
2022/08/11 09:48:23;;;;;;;1.15;1.05;;;30.10;69.60;;;;;;5113572;28;20184;-58
2022/08/11 09:50:51;;;;;;;0.80;0.80;;;30.20;70.00;;;;;;5113772;28;20264;-58
2022/08/11 09:53:18;;;;;;;1.50;1.10;;;30.40;68.90;;;;;;5113752;28;20165;-57
2022/08/11 09:55:45;;;;;;;1.50;1.10;;;30.30;69.10;;;;;;5113357;28;20595;-58
2022/08/11 09:58:12;;;;;;;1.25;1.00;;;30.30;69.40;;;;;;5113691;28;20196;-59
2022/08/11 10:00:39;;;;;;;1.30;1.20;;;30.10;68.70;;;;;;5113305;28;20177;-58
2022/08/11 10:03:25;;;;;;;2.13;1.30;;;30.30;69.00;;;;;;5112030;28;20201;-58
2022/08/11 10:08:55;;;;;;;1.65;1.00;;;30.20;68.60;;;;;;5113814;28;20592;-58
2022/08/11 10:11:23;;;;;;;1.27;1.10;;;30.30;68.50;;;;;;5113320;28;20173;-58
2022/08/11 10:16:40;;;;;;;1.58;1.20;;;30.80;67.10;;;;;;5113507;28;20235;-58
2022/08/11 10:19:08;;;;;;;0.95;0.95;;;30.60;68.00;;;;;;5112164;28;20273;-58
2022/08/11 10:21:39;;;;;;;1.48;1.30;;;30.80;67.30;;;;;;5113280;28;20261;-58
2022/08/11 10:26:53;;;;;;;1.00;0.90;;;30.80;67.20;;;;;;5112536;28;20277;-57
2022/08/11 10:35:13;;;;;;;1.10;1.00;;;31.50;66.00;;;;;;5113367;28;20212;-58
2022/08/11 10:37:41;;;;;;;1.63;1.52;;;31.70;65.90;;;;;;5113399;28;20177;-57
2022/08/11 10:40:09;;;;;;;1.45;1.17;;;31.40;66.70;;;;;;5113083;28;20177;-58
2022/08/11 10:48:07;;;;;;;1.50;1.40;;;31.20;65.10;;;;;;5113316;28;20245;-58
2022/08/11 10:58:48;;;;;;;0.90;0.90;;;31.10;63.90;;;;;;5116916;28;20184;-58
2022/08/11 11:01:23;;;;;;;1.38;1.25;;;31.50;66.00;;;;;;5115358;28;20165;-58
2022/08/11 11:03:53;;;;;;;1.02;1.00;;;31.20;63.70;;;;;;5116900;28;20210;-58
2022/08/11 11:06:59;;;;;;;1.20;1.10;;;31.00;64.20;;;;;;5116698;28;20173;-58
2022/08/11 11:09:46;;;;;;;1.00;1.00;;;31.20;64.70;;;;;;5116464;28;20168;-58
2022/08/11 11:18:03;;;;;;;1.17;1.00;;;31.40;63.70;;;;;;5116589;28;20243;-57
2022/08/11 11:20:35;;;;;;;2.00;1.20;;;31.50;64.20;;;;;;5116318;28;20204;-58
2022/08/11 11:23:11;;;;;;;1.20;1.10;;;31.70;64.30;;;;;;5116391;28;20165;-58
2022/08/11 11:26:11;;;;;;;1.58;1.20;;;31.80;64.40;;;;;;5116564;28;20173;-58
2022/08/11 11:29:04;;;;;;;1.50;1.40;;;31.60;64.30;;;;;;5115961;28;20166;-58
2022/08/11 11:31:50;;;;;;;1.55;1.20;;;31.70;63.50;;;;;;5116096;28;20181;-58
2022/08/11 11:34:36;;;;;;;1.45;1.23;;;32.00;63.20;;;;;;5115942;28;20204;-58
2022/08/11 11:37:03;;;;;;;1.17;1.08;;;31.90;63.40;;;;;;5115347;28;20266;-58
2022/08/11 11:39:31;;;;;;;1.20;1.10;;;32.10;63.60;;;;;;5115922;28;20183;-58
2022/08/11 11:42:02;;;;;;;1.20;1.10;;;31.90;62.30;;;;;;5115826;28;20172;-58
2022/08/11 11:44:28;;;;;;;1.60;1.25;;;32.20;64.00;;;;;;5115751;28;20516;-58
2022/08/11 11:46:54;;;;;;;1.10;1.00;;;31.90;62.70;;;;;;5115801;28;20185;-58
2022/08/11 11:49:24;;;;;;;1.92;1.10;;;32.10;63.30;;;;;;5115480;28;20184;-58
2022/08/11 11:51:51;;;;;;;1.35;1.25;;;32.10;63.70;;;;;;5115779;28;20210;-58
2022/08/11 11:54:22;;;;;;;1.67;1.10;;;32.00;62.40;;;;;;5115593;28;20555;-58
2022/08/11 11:56:52;;;;;;;1.33;1.23;;;32.00;61.80;;;;;;5115654;28;20213;-58
2022/08/11 12:02:08;;;;;;;1.08;1.00;;;31.80;62.10;;;;;;5115263;28;20184;-57
2022/08/11 12:04:37;;;;;;;2.17;1.25;;;32.10;63.10;;;;;;5115354;28;20189;-58
2022/08/11 12:10:06;;;;;;;1.20;1.10;;;32.20;62.20;;;;;;5102547;28;20538;-58
2022/08/11 12:15:18;;;;;;;1.20;1.10;;;32.40;62.30;;;;;;5114320;28;20198;-58
2022/08/11 12:17:45;;;;;;;1.27;1.10;;;32.30;60.90;;;;;;5115098;28;20185;-57
2022/08/11 12:20:13;;;;;;;1.40;1.23;;;31.90;60.70;;;;;;5115031;28;20176;-58
2022/08/11 12:28:09;;;;;;;1.50;1.38;;;31.90;60.60;;;;;;5115187;28;20195;-58
2022/08/11 12:30:35;;;;;;;1.10;1.00;;;32.30;61.40;;;;;;5114760;28;20500;-58
2022/08/11 12:33:02;;;;;;;1.75;1.50;;;32.30;61.60;;;;;;5113441;28;20177;-57
2022/08/11 12:35:29;;;;;;;1.98;1.08;;;32.20;60.90;;;;;;5115179;28;20201;-57
2022/08/11 12:38:02;;;;;;;1.35;1.25;;;32.10;61.40;;;;;;5114628;28;20260;-57
2022/08/11 12:46:11;;;;;;;0.80;0.80;;;32.00;60.10;;;;;;5114912;28;20226;-58
2022/08/11 12:54:35;;;;;;;1.20;1.10;;;32.60;59.90;;;;;;5114867;28;20264;-58
2022/08/11 13:05:24;;;;;;;1.25;1.15;;;32.20;60.70;;;;;;5114425;28;20278;-58
2022/08/11 13:07:51;;;;;;;1.70;1.15;;;32.10;61.00;;;;;;5114218;28;20664;-57
2022/08/11 13:13:06;;;;;;;1.17;1.08;;;32.60;60.60;;;;;;5113881;28;20204;-58
2022/08/11 13:15:32;;;;;;;2.13;1.38;;;32.60;59.10;;;;;;5114056;28;20193;-57
2022/08/11 13:17:59;;;;;;;1.02;0.88;;;32.80;59.80;;;;;;5114112;28;20182;-58
2022/08/11 13:20:26;;;;;;;1.25;1.13;;;32.90;59.70;;;;;;5112745;28;20181;-58
2022/08/11 13:22:54;;;;;;;2.47;1.40;;;32.70;59.30;;;;;;5113956;28;20641;-58
2022/08/11 13:25:23;;;;;;;1.17;1.08;;;32.60;59.30;;;;;;5114122;28;20215;-58
2022/08/11 13:27:51;;;;;;;1.58;1.00;;;32.50;59.20;;;;;;5114107;28;20169;-58
2022/08/11 13:33:03;;;;;;;1.50;1.08;;;32.30;58.40;;;;;;5113188;28;20207;-59
2022/08/11 13:35:32;;;;;;;1.17;1.10;;;32.10;59.20;;;;;;5113644;28;20200;-58
2022/08/11 13:38:01;;;;;;;1.23;1.10;;;32.30;59.80;;;;;;5112736;28;20642;-58
2022/08/11 13:40:27;;;;;;;1.60;1.20;;;32.40;58.90;;;;;;5113756;28;20662;-58
2022/08/11 13:42:54;;;;;;;1.00;0.90;;;32.30;58.70;;;;;;5113950;28;20180;-58
2022/08/11 13:45:24;;;;;;;1.48;1.30;;;32.40;58.80;;;;;;5112529;28;20222;-58
2022/08/11 13:47:56;;;;;;;1.00;1.00;;;32.40;58.20;;;;;;5113642;28;20664;-58
2022/08/11 13:51:29;;;;;;;1.25;1.15;;;32.60;58.60;;;;;;5113716;28;20500;-58
2022/08/11 13:53:15;;;;;;;0.95;0.88;;;32.60;57.50;;;;;;5113453;28;20189;-58
2022/08/11 13:55:42;;;;;;;1.20;1.10;;;32.70;57.80;;;;;;5113580;28;20289;-58
2022/08/11 13:58:12;;;;;;;1.25;1.10;;;32.90;58.60;;;;;;5113555;28;20176;-58
2022/08/11 14:00:40;;;;;;;1.08;1.00;;;32.80;58.30;;;;;;5113510;28;20170;-58
2022/08/11 14:03:11;;;;;;;1.08;1.00;;;32.70;57.20;;;;;;5113553;28;20199;-57
2022/08/11 14:05:45;;;;;;;1.33;1.23;;;32.60;58.30;;;;;;5113597;28;20181;-58
2022/08/11 14:08:17;;;;;;;1.20;1.10;;;32.80;58.30;;;;;;5113593;28;20186;-58
2022/08/11 14:10:45;;;;;;;1.35;1.20;;;33.00;57.80;;;;;;5113455;28;20173;-58
2022/08/11 14:16:04;;;;;;;2.47;0.90;;;32.80;56.70;;;;;;5113529;28;20717;-58
2022/08/11 14:18:31;;;;;;;1.00;1.00;;;32.80;58.00;;;;;;5113385;28;20661;-58
2022/08/11 14:23:49;;;;;;;1.30;1.20;;;32.80;55.90;;;;;;5113351;28;20552;-58
2022/08/11 14:26:22;;;;;;;1.23;1.13;;;32.80;56.80;;;;;;5116405;28;20169;-58
2022/08/11 14:28:53;;;;;;;1.05;1.05;;;32.70;56.40;;;;;;5116205;28;20231;-58
2022/08/11 14:31:22;;;;;;;1.33;1.00;;;32.50;56.60;;;;;;5117092;28;20170;-58
2022/08/11 14:33:49;;;;;;;1.20;1.10;;;32.50;55.90;;;;;;5117006;28;20173;-58
2022/08/11 14:36:15;;;;;;;0.80;0.80;;;32.60;55.30;;;;;;5117104;28;20201;-58
2022/08/11 14:38:42;;;;;;;0.80;0.80;;;32.40;55.90;;;;;;5116927;28;20550;-57
2022/08/11 14:49:27;;;;;;;1.30;1.20;;;32.10;55.70;;;;;;5116820;28;20219;-58
2022/08/11 14:51:56;;;;;;;1.15;1.10;;;32.00;55.90;;;;;;5115536;28;20534;-58
2022/08/11 14:57:12;;;;;;;1.08;0.98;;;32.10;56.70;;;;;;5116656;28;20212;-58
2022/08/11 14:59:38;;;;;;;3.58;2.72;;;32.10;56.50;;;;;;5116528;28;20564;-58
2022/08/11 15:05:09;;;;;;;1.77;1.30;;;31.90;56.00;;;;;;5093873;28;20228;-58
2022/08/11 15:07:36;;;;;;;1.30;1.20;;;31.80;56.10;;;;;;5076919;28;20178;-58
2022/08/11 15:10:07;;;;;;;1.10;1.00;;;31.90;56.40;;;;;;5104272;28;20189;-58
2022/08/11 15:12:35;;;;;;;1.27;1.17;;;31.80;56.70;;;;;;5116196;28;20678;-57
2022/08/11 15:17:50;;;;;;;1.27;1.08;;;31.80;57.00;;;;;;5116327;28;20647;-58
2022/08/11 15:26:17;;;;;;;1.45;1.20;;;32.10;56.50;;;;;;5116338;28;20226;-58
2022/08/11 15:46:16;;;;;;;1.35;1.25;;;31.80;56.80;;;;;;5116099;28;20184;-58
2022/08/11 15:48:55;;;;;;;2.25;1.63;;;31.60;56.60;;;;;;5115677;28;20218;-58
2022/08/11 15:51:35;;;;;;;1.17;1.08;;;31.60;57.10;;;;;;5115745;28;20645;-58
2022/08/11 15:54:10;;;;;;;1.10;1.10;;;31.50;56.70;;;;;;5115637;28;20215;-58
2022/08/11 15:56:40;;;;;;;2.22;1.02;;;31.50;56.80;;;;;;5115751;28;20223;-58
2022/08/11 16:04:43;;;;;;;0.82;0.82;;;31.40;56.70;;;;;;5115397;28;20226;-60
2022/08/11 16:07:14;;;;;;;1.58;1.38;;;31.40;57.20;;;;;;5115359;28;20204;-60
2022/08/11 16:09:45;;;;;;;1.25;1.10;;;31.30;56.60;;;;;;5115193;28;20169;-60
2022/08/11 16:16:12;;;;;;;1.50;1.25;;;31.20;57.10;;;;;;5114189;28;20175;-60
2022/08/11 16:18:15;;;;;;;1.10;1.00;;;31.30;58.00;;;;;;5115313;28;20165;-59
2022/08/11 16:20:43;;;;;;;1.15;1.05;;;31.20;57.60;;;;;;5114891;28;20553;-60
2022/08/11 16:23:10;;;;;;;1.13;1.02;;;31.20;56.20;;;;;;5115163;28;20626;-60
2022/08/11 16:25:36;;;;;;;1.58;1.13;;;31.10;56.30;;;;;;5114905;28;20161;-59
2022/08/11 16:28:04;;;;;;;1.17;1.08;;;31.20;55.80;;;;;;5113638;28;20212;-60
2022/08/11 16:30:33;;;;;;;1.17;1.10;;;31.00;56.10;;;;;;5114704;27;20189;-59
2022/08/11 16:33:00;;;;;;;1.52;1.20;;;31.00;56.10;;;;;;5115182;28;20222;-59
2022/08/11 16:40:59;;;;;;;1.30;1.20;;;31.00;55.20;;;;;;5114680;28;20220;-60
2022/08/11 16:49:23;;;;;;;1.95;1.33;;;31.10;55.40;;;;;;5114819;28;20673;-59
2022/08/11 16:51:49;;;;;;;1.10;1.05;;;31.00;55.80;;;;;;5114608;28;20182;-60
2022/08/11 16:54:15;;;;;;;1.23;1.13;;;30.90;55.90;;;;;;5114607;28;20169;-59
2022/08/11 16:56:43;;;;;;;1.27;1.15;;;30.70;55.30;;;;;;5114378;28;20201;-59
2022/08/11 16:59:16;;;;;;;1.63;1.20;;;30.70;56.00;;;;;;5114045;28;20208;-59
2022/08/11 17:01:52;;;;;;;1.55;1.00;;;30.70;55.80;;;;;;5114320;28;20179;-59
2022/08/11 17:13:08;;;;;;;1.40;1.10;;;30.60;56.70;;;;;;5114364;28;20204;-60
2022/08/11 17:18:40;;;;;;;1.08;1.00;;;30.50;57.00;;;;;;5114087;28;20197;-60
2022/08/11 17:21:11;;;;;;;1.05;0.95;;;30.60;56.10;;;;;;5114101;28;20180;-60
2022/08/11 17:23:50;;;;;;;1.35;1.20;;;30.50;56.50;;;;;;5114103;28;20170;-60
2022/08/11 17:26:58;;;;;;;1.38;1.27;;;30.40;57.10;;;;;;5114024;28;20181;-60
2022/08/11 17:29:39;;;;;;;1.70;1.30;;;30.40;57.20;;;;;;5114018;28;20165;-60
2022/08/11 17:37:46;;;;;;;1.27;1.17;;;30.30;57.50;;;;;;5114164;28;20188;-60
2022/08/11 17:40:14;;;;;;;1.40;1.20;;;30.20;57.80;;;;;;5113844;28;20265;-60
2022/08/11 17:48:36;;;;;;;1.13;1.02;;;30.20;58.00;;;;;;5078794;28;20177;-60
2022/08/11 17:51:07;;;;;;;1.95;1.63;;;30.20;57.70;;;;;;5113614;28;20590;-59
2022/08/11 18:04:49;;;;;;;1.20;1.10;;;29.90;58.60;;;;;;5117670;28;20309;-59
